Time;durP1;ratioP1;P1;durP2;ratioP2;P2;SDS_P1;SDS_P2;PMS_P1;PMS_P2;Temp;Humidity;BMP_temperature;BMP_pressure;BME280_temperature;BME280_humidity;BME280_pressure;Samples;Min_cycle;Max_cycle;Signal;HPM_P1;HPM_P2
2021/05/09 00:01:19;;;;;;;84.43;14.68;;;;;;;12.33;100.00;99948.97;5073661;28;20075;-65
2021/05/09 00:03:45;;;;;;;98.05;17.58;;;;;;;12.37;100.00;99952.78;5073703;28;20440;-67
2021/05/09 00:06:12;;;;;;;92.65;16.35;;;;;;;12.40;100.00;99942.38;5073624;28;20058;-67
2021/05/09 00:08:37;;;;;;;82.18;15.07;;;;;;;12.40;100.00;99943.19;5073626;28;20052;-66
2021/05/09 00:11:04;;;;;;;71.07;14.57;;;;;;;12.42;100.00;99929.22;5073623;28;20040;-65
2021/05/09 00:13:29;;;;;;;93.43;14.20;;;;;;;12.33;100.00;99938.03;5073586;28;20040;-66
2021/05/09 00:15:56;;;;;;;81.68;16.40;;;;;;;12.31;100.00;99934.72;5071972;28;20567;-66
2021/05/09 00:18:22;;;;;;;81.38;15.57;;;;;;;12.37;100.00;99933.63;5073511;28;20479;-66
2021/05/09 00:20:47;;;;;;;75.30;14.40;;;;;;;12.37;100.00;99922.69;5073491;28;20044;-67
2021/05/09 00:23:13;;;;;;;71.55;13.48;;;;;;;12.31;100.00;99929.22;5073336;28;20059;-67
2021/05/09 00:25:38;;;;;;;96.25;16.23;;;;;;;12.30;100.00;99924.84;5073495;28;20134;-66
2021/05/09 00:28:04;;;;;;;95.28;14.98;;;;;;;12.29;100.00;99925.97;5073382;28;20036;-66
2021/05/09 00:30:30;;;;;;;95.70;15.93;;;;;;;12.27;100.00;99927.34;5073233;28;20189;-66
2021/05/09 00:32:56;;;;;;;83.05;14.65;;;;;;;12.22;100.00;99925.44;5073394;28;20043;-66
2021/05/09 00:35:22;;;;;;;59.83;11.35;;;;;;;12.23;100.00;99921.59;5073140;28;20037;-67
2021/05/09 00:37:47;;;;;;;55.20;10.68;;;;;;;12.30;100.00;99916.66;5073111;28;20455;-64
2021/05/09 00:40:13;;;;;;;49.20;8.73;;;;;;;12.27;100.00;99911.72;5073113;28;20048;-67
2021/05/09 00:42:39;;;;;;;36.10;8.15;;;;;;;12.29;100.00;99931.44;5072526;28;20482;-67
2021/05/09 00:45:06;;;;;;;32.65;8.40;;;;;;;12.27;100.00;99930.06;5073017;28;20063;-66
2021/05/09 00:47:32;;;;;;;25.13;5.75;;;;;;;12.33;100.00;99920.78;5072873;28;20036;-65
2021/05/09 00:49:58;;;;;;;29.25;5.63;;;;;;;12.35;100.00;99919.41;5073175;28;20033;-67
2021/05/09 00:52:25;;;;;;;28.05;5.10;;;;;;;12.34;100.00;99939.66;5072668;28;20036;-67
2021/05/09 00:54:54;;;;;;;20.80;4.40;;;;;;;12.23;100.00;99935.28;5072637;28;20106;-67
2021/05/09 00:57:22;;;;;;;15.40;3.15;;;;;;;11.95;100.00;99930.34;5072902;28;20044;-66
2021/05/09 00:59:51;;;;;;;19.25;3.88;;;;;;;11.93;100.00;99916.13;5072773;28;20094;-65
2021/05/09 01:02:18;;;;;;;14.00;2.50;;;;;;;11.87;100.00;99922.72;5072939;28;20483;-67
2021/05/09 01:04:45;;;;;;;16.25;2.03;;;;;;;11.74;100.00;99924.84;5072660;28;20036;-67
2021/05/09 01:07:13;;;;;;;8.88;1.70;;;;;;;11.68;100.00;99920.47;5072840;28;20043;-66
2021/05/09 01:09:39;;;;;;;12.73;2.03;;;;;;;11.70;100.00;99929.22;5072825;28;20076;-67
2021/05/09 01:12:05;;;;;;;13.35;2.65;;;;;;;11.71;100.00;99919.09;5072741;28;20321;-66
2021/05/09 01:14:31;;;;;;;17.08;2.35;;;;;;;11.69;100.00;99922.13;5072356;28;20115;-66
2021/05/09 01:16:56;;;;;;;12.25;1.73;;;;;;;11.57;100.00;99913.34;5072530;28;20473;-66
2021/05/09 01:19:22;;;;;;;14.55;1.58;;;;;;;11.58;100.00;99914.97;5072635;28;20036;-67
2021/05/09 01:21:48;;;;;;;8.50;1.35;;;;;;;11.57;100.00;99907.88;5072309;28;20115;-67
2021/05/09 01:24:13;;;;;;;6.93;1.23;;;;;;;11.62;100.00;99893.38;5072490;28;20039;-66
2021/05/09 01:26:41;;;;;;;7.32;1.25;;;;;;;11.60;100.00;99885.44;5072410;28;20063;-66
2021/05/09 01:29:07;;;;;;;4.88;1.08;;;;;;;11.61;100.00;99865.19;5072274;28;20037;-66
2021/05/09 01:31:33;;;;;;;9.45;1.60;;;;;;;11.60;100.00;99877.22;5072405;28;20055;-67
2021/05/09 01:33:58;;;;;;;16.75;1.98;;;;;;;11.57;100.00;99868.75;5072057;28;20123;-67
2021/05/09 01:36:24;;;;;;;22.63;3.00;;;;;;;11.58;100.00;99868.50;5071965;28;20174;-68
2021/05/09 01:38:50;;;;;;;14.95;3.05;;;;;;;11.52;100.00;99866.84;5072233;28;20044;-67
2021/05/09 01:41:15;;;;;;;24.58;3.80;;;;;;;11.47;100.00;99864.13;5072040;28;20047;-68
2021/05/09 01:43:41;;;;;;;20.75;3.78;;;;;;;11.45;100.00;99878.06;5071923;28;20371;-66
2021/05/09 01:46:07;;;;;;;28.90;3.90;;;;;;;11.48;100.00;99882.16;5071989;28;20101;-67
2021/05/09 01:48:33;;;;;;;25.85;4.38;;;;;;;11.39;100.00;99879.13;5071973;28;20044;-68
2021/05/09 01:50:58;;;;;;;25.65;4.72;;;;;;;11.44;100.00;99883.78;5071711;28;20090;-66
2021/05/09 01:53:24;;;;;;;33.97;3.72;;;;;;;11.46;100.00;99873.41;5071887;28;20047;-67
2021/05/09 01:55:50;;;;;;;26.77;3.35;;;;;;;11.47;100.00;99870.41;5070668;28;20118;-67
2021/05/09 01:58:15;;;;;;;28.85;3.50;;;;;;;11.50;100.00;99882.72;5071710;28;20043;-68
2021/05/09 02:00:41;;;;;;;21.85;3.05;;;;;;;11.49;100.00;99867.41;5071713;28;20067;-66
2021/05/09 02:03:07;;;;;;;23.88;3.60;;;;;;;11.50;100.00;99866.31;5071585;28;20040;-66
2021/05/09 02:05:33;;;;;;;27.05;3.47;;;;;;;11.55;100.00;99871.78;5071414;28;20036;-66
2021/05/09 02:07:58;;;;;;;33.65;4.10;;;;;;;11.47;100.00;99878.63;5071377;28;20040;-66
2021/05/09 02:10:24;;;;;;;25.95;2.85;;;;;;;11.49;100.00;99867.41;5071448;28;20494;-66
2021/05/09 02:12:50;;;;;;;29.33;3.85;;;;;;;11.40;100.00;99866.28;5071472;28;20110;-67
2021/05/09 02:15:16;;;;;;;30.70;3.45;;;;;;;11.38;100.00;99869.28;5070995;28;20474;-67
2021/05/09 02:17:42;;;;;;;23.77;3.92;;;;;;;11.38;100.00;99844.69;5071277;28;20045;-67
2021/05/09 02:20:09;;;;;;;20.52;3.50;;;;;;;11.38;100.00;99846.59;5071278;28;20033;-66
2021/05/09 02:22:35;;;;;;;16.88;3.50;;;;;;;11.39;100.00;99853.72;5071140;28;20032;-67
2021/05/09 02:25:01;;;;;;;22.58;4.00;;;;;;;11.47;100.00;99842.25;5071310;28;20031;-66
2021/05/09 02:27:26;;;;;;;24.10;3.08;;;;;;;11.40;100.00;99830.75;5071208;28;20046;-67
2021/05/09 02:29:52;;;;;;;16.83;3.13;;;;;;;11.40;100.00;99837.03;5071283;28;20048;-65
2021/05/09 02:32:18;;;;;;;25.45;2.97;;;;;;;11.39;100.00;99845.50;5069777;28;20049;-67
2021/05/09 02:34:44;;;;;;;19.02;3.78;;;;;;;11.38;100.00;99841.13;5071156;28;20367;-67
2021/05/09 02:37:10;;;;;;;29.33;3.50;;;;;;;11.37;100.00;99842.22;5070932;28;20090;-66
2021/05/09 02:39:35;;;;;;;24.92;3.78;;;;;;;11.35;100.00;99833.47;5071186;28;20499;-67
2021/05/09 02:42:01;;;;;;;30.98;4.85;;;;;;;11.35;100.00;99828.00;5071036;28;20042;-67
2021/05/09 02:44:27;;;;;;;38.35;6.13;;;;;;;11.44;100.00;99826.38;5070625;28;20465;-66
2021/05/09 02:46:52;;;;;;;26.23;4.10;;;;;;;11.38;100.00;99831.03;5070901;28;20106;-66
2021/05/09 02:49:18;;;;;;;32.20;6.03;;;;;;;11.36;100.00;99841.41;5071129;28;20044;-67
2021/05/09 02:51:44;;;;;;;34.90;4.38;;;;;;;11.37;100.00;99834.84;5070842;28;20054;-67
2021/05/09 02:54:09;;;;;;;31.98;4.45;;;;;;;11.36;100.00;99826.91;5070888;28;20040;-66
2021/05/09 02:56:35;;;;;;;29.15;4.45;;;;;;;11.36;100.00;99810.53;5069375;28;20056;-67
2021/05/09 02:59:01;;;;;;;33.67;3.80;;;;;;;11.35;100.00;99828.84;5070731;28;20043;-66
2021/05/09 03:01:27;;;;;;;23.23;4.20;;;;;;;11.34;100.00;99831.84;5070695;28;20040;-66
2021/05/09 03:03:53;;;;;;;25.90;4.38;;;;;;;11.43;100.00;99835.66;5070655;28;20044;-67
2021/05/09 03:06:18;;;;;;;34.13;6.50;;;;;;;11.36;100.00;99851.53;5070325;28;20406;-67
2021/05/09 03:08:44;;;;;;;36.00;4.03;;;;;;;11.32;100.00;99859.44;5070904;28;20040;-66
2021/05/09 03:11:10;;;;;;;26.40;3.60;;;;;;;11.31;100.00;99855.06;5070717;28;20036;-68
2021/05/09 03:13:36;;;;;;;27.83;4.18;;;;;;;11.28;100.00;99836.50;5069238;28;20120;-67
2021/05/09 03:16:02;;;;;;;44.50;4.40;;;;;;;11.29;100.00;99853.72;5070527;28;20483;-66
2021/05/09 03:18:28;;;;;;;28.95;4.53;;;;;;;11.33;100.00;99824.72;5070675;28;20146;-65
2021/05/09 03:20:55;;;;;;;34.03;3.83;;;;;;;11.30;100.00;99844.41;5070583;28;20029;-65
2021/05/09 03:23:21;;;;;;;29.80;3.72;;;;;;;11.28;100.00;99846.56;5069446;28;20116;-66
2021/05/09 03:25:47;;;;;;;29.48;3.92;;;;;;;11.26;100.00;99860.50;5070618;28;20115;-67
2021/05/09 03:28:13;;;;;;;26.02;3.55;;;;;;;11.25;100.00;99866.25;5070472;28;20035;-66
2021/05/09 03:30:39;;;;;;;21.75;4.07;;;;;;;11.23;100.00;99852.03;5070473;28;20059;-68
2021/05/09 03:33:05;;;;;;;25.60;4.05;;;;;;;11.29;100.00;99845.50;5070456;28;20040;-67
2021/05/09 03:35:32;;;;;;;21.33;3.63;;;;;;;11.21;100.00;99859.69;5070168;28;20032;-66
2021/05/09 03:37:59;;;;;;;25.77;2.85;;;;;;;11.20;100.00;99849.84;5070624;28;20029;-66
2021/05/09 03:40:25;;;;;;;24.20;3.85;;;;;;;11.31;100.00;99826.91;5070464;28;20032;-66
2021/05/09 03:42:51;;;;;;;33.83;3.85;;;;;;;11.26;100.00;99835.09;5069061;28;20028;-65
2021/05/09 03:45:16;;;;;;;27.00;3.72;;;;;;;11.22;100.00;99823.88;5070437;28;20029;-65
2021/05/09 03:47:42;;;;;;;27.67;4.07;;;;;;;11.23;100.00;99821.97;5070402;28;20123;-68
2021/05/09 03:50:08;;;;;;;25.20;3.22;;;;;;;11.22;100.00;99812.13;5070148;28;20120;-67
2021/05/09 03:52:35;;;;;;;31.38;4.60;;;;;;;11.22;100.00;99818.44;5070291;28;20097;-67
2021/05/09 03:55:00;;;;;;;32.53;4.38;;;;;;;11.22;100.00;99812.97;5070360;28;20052;-66
2021/05/09 03:57:26;;;;;;;34.65;4.10;;;;;;;11.23;100.00;99800.13;5070073;28;20379;-67
2021/05/09 03:59:53;;;;;;;29.15;5.10;;;;;;;11.23;100.00;99795.47;5070363;28;20489;-67
2021/05/09 04:02:20;;;;;;;22.90;3.08;;;;;;;11.23;100.00;99803.66;5069033;28;20032;-66
2021/05/09 04:04:46;;;;;;;40.10;4.72;;;;;;;11.24;100.00;99804.47;5069872;28;20037;-65
2021/05/09 04:07:12;;;;;;;33.00;3.40;;;;;;;11.24;100.00;99799.00;5070089;28;20035;-67
2021/05/09 04:09:37;;;;;;;29.10;3.03;;;;;;;11.24;100.00;99802.56;5070201;28;20032;-66
2021/05/09 04:12:05;;;;;;;30.25;3.85;;;;;;;11.24;100.00;99805.31;5069905;28;20097;-67
2021/05/09 04:14:32;;;;;;;19.70;3.92;;;;;;;11.24;100.00;99815.41;5069949;28;20402;-66
2021/05/09 04:16:59;;;;;;;26.65;3.65;;;;;;;11.24;100.00;99815.41;5070120;28;20029;-67
2021/05/09 04:19:25;;;;;;;40.00;4.90;;;;;;;11.25;100.00;99801.47;5073181;28;20029;-65
2021/05/09 04:21:50;;;;;;;29.85;3.78;;;;;;;11.25;100.00;99812.41;5073606;28;20479;-67
2021/05/09 04:24:16;;;;;;;28.90;4.00;;;;;;;11.25;100.00;99814.31;5073511;28;20029;-66
2021/05/09 04:26:42;;;;;;;29.13;4.00;;;;;;;11.25;100.00;99800.66;5073397;28;20457;-66
2021/05/09 04:29:07;;;;;;;21.60;3.03;;;;;;;11.23;100.00;99814.59;5073533;28;20123;-66
2021/05/09 04:31:33;;;;;;;30.13;3.80;;;;;;;11.25;100.00;99797.94;5073511;28;20039;-67
2021/05/09 04:34:00;;;;;;;32.97;4.32;;;;;;;11.26;100.00;99813.22;5073318;28;20505;-65
2021/05/09 04:36:26;;;;;;;33.80;3.65;;;;;;;11.27;100.00;99825.81;5073445;28;20032;-67
2021/05/09 04:38:51;;;;;;;36.72;4.63;;;;;;;11.29;100.00;99823.66;5073522;28;20042;-66
2021/05/09 04:41:18;;;;;;;36.85;3.72;;;;;;;11.30;100.00;99830.75;5073219;28;20055;-66
2021/05/09 04:43:43;;;;;;;37.28;4.72;;;;;;;11.31;100.00;99821.47;5073165;28;20415;-67
2021/05/09 04:46:09;;;;;;;22.25;4.00;;;;;;;11.32;100.00;99836.75;5073239;28;20445;-67
2021/05/09 04:48:35;;;;;;;30.48;4.75;;;;;;;11.35;100.00;99828.00;5073169;28;20608;-66
2021/05/09 04:51:00;;;;;;;28.15;3.53;;;;;;;11.33;100.00;99819.25;5073193;28;20501;-65
2021/05/09 04:53:31;;;;;;;21.25;3.45;;;;;;;11.34;100.00;99823.63;5073234;28;20041;-66
2021/05/09 04:56:00;;;;;;;30.95;4.18;;;;;;;11.33;100.00;99825.56;5072594;28;20131;-68
2021/05/09 04:58:26;;;;;;;38.47;4.20;;;;;;;11.32;100.00;99821.19;5073003;28;20094;-67
2021/05/09 05:00:53;;;;;;;35.35;5.20;;;;;;;11.31;100.00;99816.00;5072975;28;20119;-66
2021/05/09 05:03:20;;;;;;;38.05;4.22;;;;;;;11.32;100.00;99825.84;5072860;28;20033;-66
2021/05/09 05:05:46;;;;;;;28.17;4.13;;;;;;;11.31;100.00;99826.91;5072888;28;20036;-67
2021/05/09 05:08:12;;;;;;;31.30;4.40;;;;;;;11.32;100.00;99825.84;5072959;28;20037;-66
2021/05/09 05:10:38;;;;;;;27.65;4.93;;;;;;;11.34;100.00;99834.56;5072916;28;20043;-67
2021/05/09 05:13:19;;;;;;;31.10;4.65;;;;;;;11.35;100.00;99844.41;5072666;28;20371;-65
2021/05/09 05:15:50;;;;;;;36.42;4.32;;;;;;;11.36;100.00;99835.13;5072678;28;20551;-66
2021/05/09 05:18:16;;;;;;;36.53;4.88;;;;;;;11.38;100.00;99832.94;5072621;28;20462;-65
2021/05/09 05:20:42;;;;;;;34.05;5.05;;;;;;;11.47;100.00;99842.25;5072701;28;20036;-64
2021/05/09 05:23:13;;;;;;;46.15;5.30;;;;;;;11.49;100.00;99837.31;5072572;28;20060;-65
2021/05/09 05:25:38;;;;;;;39.20;4.80;;;;;;;11.44;100.00;99820.91;5071225;28;20043;-66
2021/05/09 05:28:04;;;;;;;34.05;4.57;;;;;;;11.48;100.00;99830.22;5072841;28;20032;-67
2021/05/09 05:30:31;;;;;;;29.95;4.65;;;;;;;11.46;100.00;99832.41;5072605;28;20082;-66
2021/05/09 05:32:57;;;;;;;32.17;5.00;;;;;;;11.47;100.00;99837.59;5072204;28;20480;-67
2021/05/09 05:35:24;;;;;;;30.83;4.38;;;;;;;11.48;100.00;99839.25;5072258;28;20036;-66
2021/05/09 05:37:54;;;;;;;30.65;3.95;;;;;;;11.59;100.00;99828.28;5072177;28;20086;-66
2021/05/09 05:40:20;;;;;;;33.72;4.32;;;;;;;11.61;100.00;99823.34;5071996;28;20124;-67
2021/05/09 05:42:46;;;;;;;36.95;5.28;;;;;;;11.61;100.00;99820.63;5071882;28;20367;-65
2021/05/09 05:45:12;;;;;;;28.25;5.55;;;;;;;11.62;100.00;99823.09;5072101;28;20087;-68
2021/05/09 05:47:37;;;;;;;33.50;4.80;;;;;;;11.67;100.00;99812.16;5071957;28;20467;-66
2021/05/09 05:50:05;;;;;;;46.15;5.85;;;;;;;11.61;100.00;99821.44;5070333;28;20044;-66
2021/05/09 05:52:30;;;;;;;43.80;5.57;;;;;;;11.72;100.00;99817.63;5071583;28;20059;-66
2021/05/09 05:54:56;;;;;;;28.70;4.57;;;;;;;11.66;100.00;99818.72;5071400;28;20060;-67
2021/05/09 05:57:22;;;;;;;33.72;4.90;;;;;;;11.68;100.00;99826.66;5071485;28;20044;-65
2021/05/09 05:59:47;;;;;;;35.88;4.57;;;;;;;11.69;100.00;99823.66;5071662;28;20542;-66
2021/05/09 06:02:14;;;;;;;43.17;6.15;;;;;;;11.75;100.00;99822.53;5071680;28;20043;-66
2021/05/09 06:04:40;;;;;;;36.17;4.05;;;;;;;11.74;100.00;99812.69;5071931;28;20032;-65
2021/05/09 06:07:07;;;;;;;29.90;4.28;;;;;;;11.77;100.00;99811.31;5071356;28;20124;-66
2021/05/09 06:09:33;;;;;;;39.05;5.43;;;;;;;11.75;100.00;99828.00;5071512;28;20050;-65
2021/05/09 06:11:59;;;;;;;28.40;5.57;;;;;;;11.88;100.00;99814.91;5071218;28;20044;-65
2021/05/09 06:14:25;;;;;;;39.17;5.15;;;;;;;11.85;100.00;99818.19;5071164;28;20028;-66
2021/05/09 06:16:51;;;;;;;31.67;5.13;;;;;;;11.93;100.00;99823.09;5071223;28;20144;-67
2021/05/09 06:19:17;;;;;;;34.03;4.75;;;;;;;12.04;100.00;99820.06;5071218;28;20086;-66
2021/05/09 06:21:43;;;;;;;26.35;4.47;;;;;;;12.11;100.00;99822.50;5071326;28;20055;-66
2021/05/09 06:24:09;;;;;;;34.97;4.90;;;;;;;12.11;100.00;99830.72;5071147;28;20055;-65
2021/05/09 06:26:35;;;;;;;35.80;5.18;;;;;;;12.07;100.00;99829.66;5070792;28;20037;-64
2021/05/09 06:29:00;;;;;;;26.95;4.30;;;;;;;12.20;100.00;99812.66;5071072;28;20055;-67
2021/05/09 06:31:26;;;;;;;34.20;4.32;;;;;;;12.27;100.00;99813.16;5069730;28;20047;-67
2021/05/09 06:33:51;;;;;;;31.80;4.78;;;;;;;12.26;100.00;99803.31;5070645;28;20139;-66
2021/05/09 06:36:17;;;;;;;39.70;5.03;;;;;;;12.27;100.00;99813.16;5070959;28;20040;-67
2021/05/09 06:38:43;;;;;;;39.65;5.97;;;;;;;12.28;100.00;99809.31;5071149;28;20098;-67
2021/05/09 06:41:08;;;;;;;32.53;4.53;;;;;;;12.30;100.00;99807.13;5070184;28;20386;-66
2021/05/09 06:43:34;;;;;;;35.15;5.00;;;;;;;12.32;100.00;99818.66;5070853;28;20090;-65
2021/05/09 06:46:01;;;;;;;35.28;5.80;;;;;;;12.31;100.00;99814.25;5070862;28;20036;-65
2021/05/09 06:48:27;;;;;;;42.13;5.20;;;;;;;12.33;100.00;99817.53;5070636;28;20128;-65
2021/05/09 06:50:53;;;;;;;38.88;4.93;;;;;;;12.34;100.00;99812.88;5069461;28;20040;-65
2021/05/09 06:53:19;;;;;;;30.70;3.80;;;;;;;12.32;100.00;99815.91;5070690;28;20043;-66
2021/05/09 06:55:49;;;;;;;32.08;4.70;;;;;;;12.16;100.00;99822.53;5070792;28;20510;-66
2021/05/09 06:58:15;;;;;;;35.20;5.40;;;;;;;12.16;100.00;99832.66;5071167;28;20360;-66
2021/05/09 07:00:41;;;;;;;36.03;5.00;;;;;;;12.19;100.00;99832.91;5070750;28;20121;-66
2021/05/09 07:03:07;;;;;;;33.45;4.75;;;;;;;12.22;100.00;99829.63;5070474;28;20039;-65
2021/05/09 07:05:35;;;;;;;34.00;5.10;;;;;;;12.24;100.00;99835.63;5070638;28;20494;-68
2021/05/09 07:08:01;;;;;;;27.40;4.70;;;;;;;12.29;100.00;99835.59;5070895;28;20036;-67
2021/05/09 07:10:27;;;;;;;37.90;5.25;;;;;;;12.32;100.00;99829.59;5070531;28;20044;-66
2021/05/09 07:12:54;;;;;;;32.03;4.88;;;;;;;12.44;100.00;99829.25;5070842;28;20063;-67
2021/05/09 07:15:32;;;;;;;38.60;5.03;;;;;;;12.44;100.00;99822.97;5070537;28;20543;-65
2021/05/09 07:18:04;;;;;;;38.65;4.82;;;;;;;12.57;100.00;99811.41;5070401;28;20036;-66
2021/05/09 07:20:32;;;;;;;34.50;4.55;;;;;;;12.62;100.00;99792.22;5070506;28;20440;-66
2021/05/09 07:22:59;;;;;;;34.85;5.03;;;;;;;12.71;100.00;99790.53;5070534;28;20557;-66
2021/05/09 07:25:25;;;;;;;36.03;5.32;;;;;;;12.78;100.00;99796.53;5070387;28;20032;-66
2021/05/09 07:27:51;;;;;;;37.83;5.15;;;;;;;12.80;100.00;99805.28;5070456;28;20041;-66
2021/05/09 07:30:17;;;;;;;34.03;5.22;;;;;;;12.85;100.00;99808.00;5070562;28;20119;-65
2021/05/09 07:32:43;;;;;;;35.95;6.25;;;;;;;12.91;100.00;99812.34;5070976;28;20052;-66
2021/05/09 07:35:09;;;;;;;35.90;6.80;;;;;;;12.96;100.00;99826.00;5070547;28;20072;-67
2021/05/09 07:37:34;;;;;;;30.08;4.90;;;;;;;13.03;100.00;99820.22;5070552;28;20036;-66
2021/05/09 07:40:00;;;;;;;28.13;5.68;;;;;;;13.06;100.00;99822.41;5070407;28;20063;-66
2021/05/09 07:42:25;;;;;;;43.33;6.28;;;;;;;13.06;100.00;99824.31;5070472;28;20515;-66
2021/05/09 07:44:55;;;;;;;38.72;5.32;;;;;;;13.08;100.00;99833.09;5070981;28;20044;-67
2021/05/09 07:47:20;;;;;;;33.72;4.32;;;;;;;13.15;100.00;99828.09;5070360;28;20118;-64
2021/05/09 07:49:46;;;;;;;32.88;4.28;;;;;;;13.20;100.00;99815.22;5070754;28;20060;-67
2021/05/09 07:52:12;;;;;;;28.80;4.68;;;;;;;13.25;100.00;99814.34;5070698;28;20436;-65
2021/05/09 07:54:38;;;;;;;34.22;4.82;;;;;;;13.29;100.00;99818.16;5073781;28;20093;-68
2021/05/09 07:57:05;;;;;;;36.45;4.72;;;;;;;13.35;100.00;99822.50;5073989;28;20102;-66
2021/05/09 07:59:32;;;;;;;35.20;5.05;;;;;;;13.36;100.00;99818.66;5074117;28;20483;-67
2021/05/09 08:01:58;;;;;;;26.50;4.05;;;;;;;13.38;100.00;99813.72;5073779;28;20036;-64
2021/05/09 08:04:24;;;;;;;28.55;4.40;;;;;;;13.37;100.00;99820.31;5073982;28;20062;-65
2021/05/09 08:06:49;;;;;;;32.60;4.47;;;;;;;13.52;100.00;99822.91;5074200;28;20126;-67
2021/05/09 08:09:15;;;;;;;28.15;4.28;;;;;;;13.56;100.00;99829.50;5073644;28;20070;-66
2021/05/09 08:11:40;;;;;;;35.35;6.47;;;;;;;13.49;100.00;99831.72;5073775;28;20131;-65
2021/05/09 08:14:06;;;;;;;29.45;4.82;;;;;;;13.46;100.00;99818.59;5072267;28;20040;-65
2021/05/09 08:16:33;;;;;;;35.28;4.78;;;;;;;13.46;100.00;99829.56;5073384;28;20148;-65
2021/05/09 08:18:59;;;;;;;31.17;4.65;;;;;;;13.48;100.00;99821.03;5073650;28;20040;-65
2021/05/09 08:21:25;;;;;;;36.60;5.25;;;;;;;13.62;100.00;99807.50;5073544;28;20391;-67
2021/05/09 08:23:51;;;;;;;36.17;5.82;;;;;;;13.69;100.00;99795.06;5073556;28;20040;-66
2021/05/09 08:26:16;;;;;;;36.67;5.55;;;;;;;13.78;100.00;99795.28;5073513;28;20475;-66
2021/05/09 08:28:43;;;;;;;40.13;6.28;;;;;;;13.92;100.00;99795.41;5073329;28;20036;-65
2021/05/09 08:31:11;;;;;;;34.17;5.75;;;;;;;13.92;100.00;99787.19;5073113;28;20045;-66
2021/05/09 08:33:37;;;;;;;35.22;6.28;;;;;;;13.93;100.00;99784.16;5071908;28;20040;-66
2021/05/09 08:36:04;;;;;;;27.50;4.78;;;;;;;13.90;100.00;99784.72;5073119;28;20053;-66
2021/05/09 08:38:29;;;;;;;36.40;5.13;;;;;;;13.87;100.00;99779.78;5073057;28;20047;-68
2021/05/09 08:40:55;;;;;;;31.25;5.47;;;;;;;13.90;100.00;99773.75;5073347;28;20036;-67
2021/05/09 08:43:21;;;;;;;29.83;5.07;;;;;;;13.94;100.00;99769.31;5073102;28;20051;-66
2021/05/09 08:45:46;;;;;;;37.25;5.10;;;;;;;14.06;100.00;99764.25;5072906;28;20036;-66
2021/05/09 08:48:22;;;;;;;36.72;5.13;;;;;;;14.14;100.00;99769.09;5073009;28;20081;-66
2021/05/09 08:50:50;;;;;;;31.58;5.13;;;;;;;14.25;100.00;99758.00;5072975;28;20035;-66
2021/05/09 08:53:19;;;;;;;31.48;4.38;;;;;;;14.30;100.00;99752.44;5072699;28;20037;-68
2021/05/09 08:55:46;;;;;;;37.83;5.18;;;;;;;14.40;100.00;99755.84;5072619;28;20534;-66
2021/05/09 08:58:12;;;;;;;38.55;4.38;;;;;;;14.40;100.00;99757.78;5072883;28;20041;-65
2021/05/09 09:00:38;;;;;;;37.53;5.35;;;;;;;14.45;100.00;99752.28;5072796;28;20036;-66
2021/05/09 09:03:05;;;;;;;23.42;3.65;;;;;;;14.53;100.00;99754.34;5072460;28;20036;-66
2021/05/09 09:05:42;;;;;;;36.08;4.50;;;;;;;14.51;100.00;99762.06;5072370;28;20600;-67
2021/05/09 09:08:09;;;;;;;27.77;4.45;;;;;;;14.56;100.00;99763.94;5072558;28;20567;-66
2021/05/09 09:10:44;;;;;;;29.60;5.32;;;;;;;14.53;100.00;99761.78;5072543;28;20111;-66
2021/05/09 09:13:28;;;;;;;29.67;3.95;;;;;;;14.49;100.00;99753.31;5072559;28;20792;-66
2021/05/09 09:15:57;;;;;;;33.03;5.70;;;;;;;14.48;100.00;99757.16;5072321;28;20047;-64
2021/05/09 09:18:31;;;;;;;32.42;4.82;;;;;;;14.39;100.00;99759.72;5072533;28;20070;-67
2021/05/09 09:21:18;;;;;;;30.85;4.72;;;;;;;14.29;100.00;99753.53;5072005;28;20123;-66
2021/05/09 09:23:45;;;;;;;38.83;4.78;;;;;;;14.24;100.00;99761.84;5071912;28;20113;-67
2021/05/09 09:26:29;;;;;;;25.73;4.45;;;;;;;14.15;100.00;99759.72;5072195;28;20036;-66
2021/05/09 09:28:55;;;;;;;34.90;6.53;;;;;;;14.14;100.00;99769.09;5070828;28;20070;-65
2021/05/09 09:31:42;;;;;;;29.88;4.68;;;;;;;14.12;100.00;99754.00;5071828;28;20394;-66
2021/05/09 09:34:08;;;;;;;23.80;3.85;;;;;;;14.16;100.00;99752.31;5072092;28;20059;-67
2021/05/09 09:36:35;;;;;;;32.22;4.68;;;;;;;14.17;100.00;99754.75;5072175;28;20028;-66
2021/05/09 09:39:01;;;;;;;34.50;4.85;;;;;;;14.14;100.00;99765.53;5071980;28;20059;-64
2021/05/09 09:41:27;;;;;;;32.22;4.63;;;;;;;14.18;100.00;99764.63;5071878;28;20490;-65
2021/05/09 09:44:06;;;;;;;28.88;4.68;;;;;;;14.19;100.00;99777.25;5071806;28;20139;-64
2021/05/09 09:46:49;;;;;;;37.83;5.43;;;;;;;14.29;100.00;99748.03;5071706;28;20593;-64
2021/05/09 09:49:19;;;;;;;36.38;5.63;;;;;;;14.34;100.00;99773.50;5071769;28;20395;-66
2021/05/09 09:51:56;;;;;;;32.72;4.82;;;;;;;14.28;100.00;99762.91;5071997;28;20029;-66
2021/05/09 09:54:41;;;;;;;26.25;4.85;;;;;;;14.33;100.00;99771.06;5071588;28;20538;-67
2021/05/09 09:57:08;;;;;;;;;;;;;;;14.34;100.00;99772.69;5071945;28;20055;-66
2021/05/09 09:59:34;;;;;;;35.30;4.95;;;;;;;14.31;100.00;99763.13;5071394;28;19953;-67
2021/05/09 10:02:05;;;;;;;32.53;6.60;;;;;;;14.36;100.00;99781.47;5071559;28;20039;-65
2021/05/09 10:04:32;;;;;;;25.80;4.72;;;;;;;14.34;100.00;99772.69;5071466;28;20025;-67
2021/05/09 10:06:59;;;;;;;31.40;4.55;;;;;;;14.37;100.00;99772.09;5071190;28;20055;-65
2021/05/09 10:09:24;;;;;;;36.88;5.47;;;;;;;14.39;100.00;99772.63;5071568;28;20036;-67
2021/05/09 10:11:54;;;;;;;31.50;5.30;;;;;;;14.45;100.00;99774.25;5071403;28;20048;-64
2021/05/09 10:14:20;;;;;;;32.92;5.15;;;;;;;14.47;100.00;99772.03;5070971;28;20125;-65
2021/05/09 10:16:49;;;;;;;32.88;4.93;;;;;;;14.50;100.00;99771.44;5070489;28;20067;-68
2021/05/09 10:19:20;;;;;;;32.88;5.50;;;;;;;14.45;100.00;99775.06;5071236;28;20111;-67
2021/05/09 10:21:46;;;;;;;29.70;5.35;;;;;;;14.44;100.00;99780.84;5071079;28;20060;-67
2021/05/09 10:24:14;;;;;;;30.27;4.05;;;;;;;14.45;100.00;99768.75;5071340;28;20129;-66
2021/05/09 10:26:47;;;;;;;29.50;4.75;;;;;;;14.51;100.00;99777.75;5071332;28;20039;-67
2021/05/09 10:29:49;;;;;;;27.88;4.57;;;;;;;14.52;100.00;99774.69;5071098;28;20093;-66
2021/05/09 10:32:17;;;;;;;33.60;4.45;;;;;;;14.53;100.00;99768.09;5048449;28;20032;-66
2021/05/09 10:34:52;;;;;;;29.95;5.13;;;;;;;14.48;100.00;99762.66;5066663;28;20076;-64
2021/05/09 10:37:50;;;;;;;28.48;4.90;;;;;;;14.40;100.00;99771.50;5070758;28;20475;-66
2021/05/09 10:40:16;;;;;;;27.65;5.20;;;;;;;14.37;100.00;99774.84;5058447;28;20044;-66
2021/05/09 10:42:41;;;;;;;28.23;5.40;;;;;;;14.49;100.00;99772.53;5071123;28;20058;-66
2021/05/09 10:45:07;;;;;;;26.85;4.43;;;;;;;14.57;100.00;99741.66;5070905;28;20036;-67
2021/05/09 10:47:33;;;;;;;32.75;5.25;;;;;;;14.76;100.00;99720.50;5070956;28;20123;-65
2021/05/09 10:50:14;;;;;;;36.13;5.13;;;;;;;14.86;100.00;99721.47;5070763;28;20387;-66
2021/05/09 10:52:42;;;;;;;30.30;5.32;;;;;;;14.82;100.00;99736.94;5070524;28;20056;-64
2021/05/09 10:55:35;;;;;;;30.10;5.13;;;;;;;14.68;100.00;99762.38;5070691;28;20547;-65
2021/05/09 10:58:02;;;;;;;30.90;4.47;;;;;;;14.69;100.00;99750.28;5070755;28;20044;-66
2021/05/09 11:00:28;;;;;;;22.40;4.10;;;;;;;14.72;100.00;99741.44;5070667;28;20036;-65
2021/05/09 11:02:54;;;;;;;26.00;4.20;;;;;;;14.66;100.00;99761.88;5071196;28;20875;-64
2021/05/09 11:05:22;;;;;;;26.15;3.92;;;;;;;14.61;100.00;99767.44;5070696;28;20129;-65
2021/05/09 11:07:49;;;;;;;24.13;4.05;;;;;;;14.62;100.00;99769.09;5069093;28;20107;-66
2021/05/09 11:10:40;;;;;;;28.95;4.88;;;;;;;14.56;100.00;99759.25;5070519;28;20044;-66
2021/05/09 11:13:07;;;;;;;25.88;3.50;;;;;;;14.60;100.00;99765.81;5070477;28;20028;-68
2021/05/09 11:15:33;;;;;;;28.90;5.32;;;;;;;14.68;100.00;99761.56;5070134;28;20055;-66
2021/05/09 11:17:58;;;;;;;29.60;4.43;;;;;;;14.74;100.00;99752.94;5070596;28;20047;-67